Terminal Aerodrome Forecast
Issued by NWS Shreveport, LA

Home | Current Version | Previous Version | Text Only | Print | Product List | Glossary On
Versions: 1 2 3 4 5 6 7 8 9 10 11 12 13 14 15 16 17 18 19
087
FTUS44 KSHV 271748
TAFTXK
TAF
KTXK 271748Z 2718/2818 22012G20KT P6SM SCT025 OVC040
      TEMPO 2718/2720 BKN020
     FM280000 02004KT P6SM SCT050
     FM281000 07005KT 4SM BR BKN015
      TEMPO 2811/2814 1SM BR OVC005=

USA.gov is the U.S. government's official web portal to all federal, state and local government web resources and services.